Time;durP1;ratioP1;P1;durP2;ratioP2;P2;SDS_P1;SDS_P2;PMS_P1;PMS_P2;Temp;Humidity;BMP_temperature;BMP_pressure;BME280_temperature;BME280_humidity;BME280_pressure;Samples;Min_cycle;Max_cycle;Signal;HPM_P1;HPM_P2
2023/08/22 00:00:13;;;;;;;3.27;2.77;;;21.00;99.90;;;;;;5073172;28;20182;-70
2023/08/22 00:02:40;;;;;;;4.27;2.73;;;;;;;;;;5073278;28;20405;-72
2023/08/22 00:05:06;;;;;;;2.40;1.87;;;20.40;99.90;;;;;;5073073;28;20410;-71
2023/08/22 00:07:32;;;;;;;3.00;1.93;;;20.90;99.90;;;;;;5073252;28;20417;-70
2023/08/22 00:09:57;;;;;;;2.60;2.50;;;20.90;99.90;;;;;;5073370;28;20409;-70
2023/08/22 00:12:23;;;;;;;2.50;1.70;;;20.90;99.90;;;;;;5073088;28;20198;-70
2023/08/22 00:14:50;;;;;;;2.50;2.30;;;;;;;;;;5072890;28;20255;-72
2023/08/22 00:17:19;;;;;;;2.57;2.20;;;21.10;99.90;;;;;;5073329;28;20175;-72
2023/08/22 00:19:45;;;;;;;6.57;3.67;;;;;;;;;;5073221;28;20807;-70
2023/08/22 00:22:11;;;;;;;1.60;1.50;;;20.80;99.90;;;;;;5072812;28;20548;-71
2023/08/22 00:24:38;;;;;;;3.50;3.20;;;21.10;99.90;;;;;;5076457;28;20436;-71
2023/08/22 00:27:04;;;;;;;6.63;2.23;;;20.90;99.90;;;;;;5077092;28;20951;-71
2023/08/22 00:29:30;;;;;;;3.13;2.20;;;21.00;99.90;;;;;;5077109;28;20876;-72
2023/08/22 00:31:58;;;;;;;3.67;3.27;;;21.00;99.90;;;;;;5076911;28;20441;-71
2023/08/22 00:34:23;;;;;;;2.23;2.13;;;21.00;99.90;;;;;;5076726;28;20178;-71
2023/08/22 00:36:49;;;;;;;4.07;3.67;;;21.00;99.90;;;;;;5077001;28;20405;-72
2023/08/22 00:39:15;;;;;;;3.40;2.77;;;21.00;99.90;;;;;;5076836;28;20670;-70
2023/08/22 00:41:40;;;;;;;1.37;1.37;;;20.90;99.90;;;;;;5076629;28;20195;-71
2023/08/22 00:44:06;;;;;;;6.43;3.67;;;20.90;99.90;;;;;;5076727;28;20190;-72
2023/08/22 00:46:32;;;;;;;2.57;2.37;;;20.80;99.90;;;;;;5076781;28;20183;-70
2023/08/22 00:48:58;;;;;;;2.93;2.67;;;20.80;99.90;;;;;;5076543;28;20219;-71
2023/08/22 00:51:24;;;;;;;3.93;3.63;;;20.60;99.90;;;;;;5076602;28;20462;-70
2023/08/22 00:53:49;;;;;;;3.23;2.13;;;20.80;99.90;;;;;;5076582;28;20590;-70
2023/08/22 00:56:16;;;;;;;2.47;2.23;;;;;;;;;;5076323;28;20439;-70
2023/08/22 00:58:42;;;;;;;3.73;2.40;;;;;;;;;;5076803;28;20536;-72
2023/08/22 01:01:08;;;;;;;7.63;3.30;;;20.80;99.90;;;;;;5076490;28;20451;-71
2023/08/22 01:03:34;;;;;;;3.33;2.63;;;20.80;99.90;;;;;;5076357;28;20415;-70
2023/08/22 01:06:16;;;;;;;1.97;1.87;;;20.70;99.90;;;;;;5076068;28;20171;-70
2023/08/22 01:08:48;;;;;;;3.47;3.17;;;20.80;99.90;;;;;;5076523;28;20397;-71
2023/08/22 01:11:24;;;;;;;4.40;3.87;;;20.80;99.90;;;;;;5076306;28;20421;-71
2023/08/22 01:13:54;;;;;;;2.90;2.63;;;20.80;99.90;;;;;;5076361;28;20421;-71
2023/08/22 01:16:20;;;;;;;3.17;2.10;;;20.70;99.90;;;;;;5076266;28;20409;-71
2023/08/22 01:18:46;;;;;;;3.03;2.40;;;20.70;99.90;;;;;;5076336;28;20492;-71
2023/08/22 01:21:23;;;;;;;4.03;3.63;;;20.70;99.90;;;;;;5076056;28;20513;-71
2023/08/22 01:23:48;;;;;;;2.00;1.40;;;20.60;99.90;;;;;;5076105;28;20441;-71
2023/08/22 01:26:15;;;;;;;2.80;1.67;;;20.60;99.90;;;;;;5075916;28;20779;-71
2023/08/22 01:28:45;;;;;;;5.50;2.63;;;20.60;99.90;;;;;;5076113;28;20263;-70
2023/08/22 01:31:36;;;;;;;2.87;2.37;;;20.80;99.90;;;;;;5076292;28;20428;-70
2023/08/22 01:34:20;;;;;;;3.33;2.23;;;20.60;99.90;;;;;;5075580;28;20439;-70
2023/08/22 01:36:47;;;;;;;3.47;3.10;;;20.50;99.90;;;;;;5075774;28;20606;-72
2023/08/22 01:39:15;;;;;;;3.43;2.90;;;20.50;99.90;;;;;;5075888;28;20406;-72
2023/08/22 01:41:41;;;;;;;4.30;2.00;;;20.50;99.90;;;;;;5075713;28;20822;-70
2023/08/22 01:44:07;;;;;;;2.90;2.70;;;20.60;99.90;;;;;;5075504;28;20404;-72
2023/08/22 01:46:33;;;;;;;2.30;2.10;;;20.90;99.90;;;;;;5075944;28;20401;-71
2023/08/22 01:48:59;;;;;;;1.90;1.80;;;20.60;99.90;;;;;;5075323;28;20179;-71
2023/08/22 01:51:24;;;;;;;3.10;2.80;;;20.70;99.90;;;;;;5075488;28;20244;-71
2023/08/22 01:53:50;;;;;;;3.80;2.40;;;20.60;99.90;;;;;;5075683;28;20688;-71
2023/08/22 01:56:16;;;;;;;3.63;3.33;;;20.80;99.90;;;;;;5075278;28;20634;-71
2023/08/22 01:58:41;;;;;;;6.30;4.93;;;20.50;99.90;;;;;;5075590;28;20172;-72
2023/08/22 02:01:11;;;;;;;2.40;2.20;;;20.50;99.90;;;;;;5075200;28;20206;-70
2023/08/22 02:03:40;;;;;;;2.47;2.27;;;20.50;99.90;;;;;;5075251;28;20227;-71
2023/08/22 02:06:06;;;;;;;2.23;2.10;;;20.40;99.90;;;;;;5075226;28;20407;-71
2023/08/22 02:08:32;;;;;;;2.53;2.33;;;20.40;99.90;;;;;;5075312;28;20405;-71
2023/08/22 02:10:58;;;;;;;3.47;3.17;;;20.50;99.90;;;;;;5075026;28;20445;-70
2023/08/22 02:13:23;;;;;;;3.03;2.83;;;20.40;99.90;;;;;;5075158;28;20317;-71
2023/08/22 02:15:49;;;;;;;2.80;2.60;;;20.30;99.90;;;;;;5075001;28;20179;-71
2023/08/22 02:18:14;;;;;;;2.90;1.70;;;20.30;99.90;;;;;;5075049;28;20191;-70
2023/08/22 02:20:40;;;;;;;2.60;2.30;;;20.40;99.90;;;;;;5074903;28;20202;-72
2023/08/22 02:23:06;;;;;;;4.00;2.70;;;20.20;99.90;;;;;;5075019;28;20201;-72
2023/08/22 02:25:32;;;;;;;3.43;2.83;;;20.40;99.90;;;;;;5074690;28;20505;-71
2023/08/22 02:27:59;;;;;;;3.80;3.50;;;20.40;99.90;;;;;;5074788;28;20175;-72
2023/08/22 02:30:24;;;;;;;4.73;2.43;;;20.20;99.90;;;;;;5074727;28;20832;-70
2023/08/22 02:32:50;;;;;;;2.50;2.30;;;20.30;99.90;;;;;;5074708;28;20433;-71
2023/08/22 02:35:16;;;;;;;1.57;1.47;;;20.40;99.90;;;;;;5074489;28;20178;-71
2023/08/22 02:37:42;;;;;;;2.57;1.70;;;20.40;99.90;;;;;;5074709;28;20181;-71
2023/08/22 02:40:11;;;;;;;2.03;1.90;;;20.60;99.90;;;;;;5074472;28;20915;-71
2023/08/22 02:42:36;;;;;;;2.50;2.30;;;20.20;99.90;;;;;;5074477;28;20598;-71
2023/08/22 02:45:03;;;;;;;2.00;1.63;;;20.20;99.90;;;;;;5074243;28;20413;-71
2023/08/22 02:47:29;;;;;;;1.97;1.80;;;20.10;99.90;;;;;;5074449;28;20688;-71
2023/08/22 02:49:54;;;;;;;2.50;2.30;;;20.20;99.90;;;;;;5074249;28;20511;-71
2023/08/22 02:52:20;;;;;;;2.97;1.80;;;20.20;99.90;;;;;;5074201;28;20201;-71
2023/08/22 02:54:46;;;;;;;2.10;2.00;;;20.10;99.90;;;;;;5074131;28;20174;-71
2023/08/22 02:57:11;;;;;;;3.27;2.20;;;20.20;99.90;;;;;;5074389;28;20196;-70
2023/08/22 02:59:37;;;;;;;3.30;2.27;;;20.00;99.90;;;;;;5074451;28;20557;-71
2023/08/22 03:02:03;;;;;;;2.70;2.50;;;20.20;99.90;;;;;;5074861;28;20199;-71
2023/08/22 03:04:30;;;;;;;3.30;2.80;;;20.20;99.90;;;;;;5074041;28;20176;-70
2023/08/22 03:06:55;;;;;;;4.13;2.50;;;20.20;99.90;;;;;;5073984;28;20436;-72
2023/08/22 03:09:21;;;;;;;5.97;3.53;;;20.50;99.90;;;;;;5074015;28;20436;-71
2023/08/22 03:11:47;;;;;;;2.83;2.53;;;20.20;99.90;;;;;;5073250;28;20560;-70
2023/08/22 03:14:13;;;;;;;5.43;2.00;;;20.20;99.90;;;;;;5073958;28;20502;-71
2023/08/22 03:16:38;;;;;;;9.10;2.63;;;20.20;99.90;;;;;;5073766;28;20178;-72
2023/08/22 03:19:05;;;;;;;1.30;1.20;;;20.10;99.90;;;;;;5073929;28;20174;-70
2023/08/22 03:21:30;;;;;;;4.60;2.73;;;20.00;99.90;;;;;;5073627;28;20201;-70
2023/08/22 03:23:56;;;;;;;3.73;3.37;;;20.10;99.90;;;;;;5073669;28;20469;-71
2023/08/22 03:26:22;;;;;;;3.80;2.93;;;;;;;;;;5073673;28;20252;-70
2023/08/22 03:28:48;;;;;;;13.70;3.03;;;20.10;99.90;;;;;;5072514;28;20633;-70
2023/08/22 03:31:13;;;;;;;3.80;3.57;;;20.10;99.90;;;;;;5074243;28;20492;-70
2023/08/22 03:33:39;;;;;;;4.40;3.73;;;19.90;99.90;;;;;;5073563;28;20173;-71
2023/08/22 03:36:05;;;;;;;1.70;1.60;;;19.70;99.90;;;;;;5073305;28;20173;-71
2023/08/22 03:38:31;;;;;;;3.13;2.90;;;19.80;99.90;;;;;;5073617;28;20191;-72
2023/08/22 03:40:56;;;;;;;2.97;2.67;;;19.90;99.90;;;;;;5073447;28;20203;-71
2023/08/22 03:43:22;;;;;;;3.87;3.57;;;20.00;99.90;;;;;;5073430;28;20314;-71
2023/08/22 03:45:48;;;;;;;2.70;2.33;;;20.00;99.90;;;;;;5073340;28;20169;-71
2023/08/22 03:48:14;;;;;;;2.83;2.63;;;20.00;99.90;;;;;;5073581;28;20404;-71
2023/08/22 03:50:41;;;;;;;2.77;2.57;;;20.10;99.90;;;;;;5073203;28;20291;-71
2023/08/22 03:53:07;;;;;;;10.83;2.27;;;20.10;99.90;;;;;;5073332;28;20420;-72
2023/08/22 03:55:33;;;;;;;2.70;2.50;;;20.00;99.90;;;;;;5073355;28;20446;-72
2023/08/22 03:57:59;;;;;;;2.20;2.00;;;;;;;;;;5073096;28;20444;-70
2023/08/22 04:00:25;;;;;;;5.20;3.37;;;19.80;99.90;;;;;;5073349;28;20594;-70
2023/08/22 04:02:56;;;;;;;6.27;3.30;;;19.80;99.90;;;;;;5073661;28;20427;-70
2023/08/22 04:05:23;;;;;;;1.47;1.37;;;19.80;99.90;;;;;;5073127;28;20759;-71
2023/08/22 04:07:49;;;;;;;5.90;2.40;;;19.80;99.90;;;;;;5073416;28;20401;-70
2023/08/22 04:10:15;;;;;;;2.80;1.90;;;20.00;99.90;;;;;;5073298;28;20431;-71
2023/08/22 04:12:41;;;;;;;2.67;2.47;;;19.70;99.90;;;;;;5073366;28;20449;-70
2023/08/22 04:15:08;;;;;;;3.27;3.03;;;19.70;99.90;;;;;;5073027;28;20407;-70
2023/08/22 04:17:35;;;;;;;2.23;1.87;;;;;;;;;;5073138;28;20173;-71
2023/08/22 04:20:01;;;;;;;3.67;2.57;;;19.70;99.90;;;;;;5073175;28;20482;-72
2023/08/22 04:22:27;;;;;;;2.70;2.50;;;19.70;99.90;;;;;;5072969;28;20470;-71
2023/08/22 04:24:52;;;;;;;1.90;1.80;;;19.70;99.90;;;;;;5072900;28;20415;-70
2023/08/22 04:27:18;;;;;;;2.03;1.93;;;19.70;99.90;;;;;;5073214;28;20366;-71
2023/08/22 04:29:44;;;;;;;2.90;2.20;;;19.70;99.90;;;;;;5072977;28;20307;-70
2023/08/22 04:32:09;;;;;;;3.57;2.77;;;19.60;99.90;;;;;;5073075;28;20203;-71
2023/08/22 04:34:35;;;;;;;3.13;2.80;;;19.60;99.90;;;;;;5072778;28;20174;-71
2023/08/22 04:37:01;;;;;;;3.00;2.80;;;19.70;99.90;;;;;;5073001;28;20209;-70
2023/08/22 04:39:26;;;;;;;5.17;4.33;;;19.70;99.90;;;;;;5073119;28;20177;-71
2023/08/22 04:41:53;;;;;;;2.33;1.70;;;;;;;;;;5072674;28;20243;-71
2023/08/22 04:44:18;;;;;;;1.83;1.73;;;19.70;99.90;;;;;;5072671;28;20253;-71
2023/08/22 04:46:44;;;;;;;3.70;2.80;;;19.70;99.90;;;;;;5072842;28;20483;-71
2023/08/22 04:49:09;;;;;;;3.10;2.80;;;19.70;99.90;;;;;;5072753;28;20230;-71
2023/08/22 04:51:35;;;;;;;1.93;1.80;;;19.70;99.90;;;;;;5072794;28;20194;-71
2023/08/22 04:54:01;;;;;;;2.70;2.50;;;19.60;99.90;;;;;;5072787;28;20178;-71
2023/08/22 04:56:27;;;;;;;3.97;3.37;;;;;;;;;;5072720;28;20177;-71
2023/08/22 04:58:52;;;;;;;2.47;2.37;;;19.60;99.90;;;;;;5072716;28;20182;-70
2023/08/22 05:01:18;;;;;;;4.07;3.50;;;19.60;99.90;;;;;;5072519;28;20457;-70
2023/08/22 05:03:45;;;;;;;3.33;3.10;;;;;;;;;;5072737;28;20211;-70
2023/08/22 05:06:11;;;;;;;3.60;2.27;;;19.70;99.90;;;;;;5072637;28;20181;-72
2023/08/22 05:08:37;;;;;;;2.60;2.37;;;19.80;99.90;;;;;;5072779;28;20410;-70
2023/08/22 05:11:02;;;;;;;1.93;1.83;;;20.00;99.90;;;;;;5074828;28;20944;-70
2023/08/22 05:13:28;;;;;;;2.37;2.17;;;20.00;99.90;;;;;;5076201;28;20209;-70
2023/08/22 05:15:54;;;;;;;3.53;3.23;;;20.00;99.90;;;;;;5076063;28;20174;-70
2023/08/22 05:18:19;;;;;;;2.47;2.27;;;20.00;99.90;;;;;;5074922;28;20626;-72
2023/08/22 05:20:45;;;;;;;3.57;2.60;;;20.10;99.90;;;;;;5075854;28;20190;-71
2023/08/22 05:23:10;;;;;;;2.30;2.20;;;20.10;99.90;;;;;;5075901;28;20174;-71
2023/08/22 05:25:36;;;;;;;2.70;2.50;;;20.10;99.90;;;;;;5075751;28;20561;-71
2023/08/22 05:28:02;;;;;;;3.13;2.83;;;;;;;;;;5076383;28;20163;-72
2023/08/22 05:30:28;;;;;;;3.00;1.80;;;20.30;99.90;;;;;;5076046;28;20180;-71
2023/08/22 05:32:54;;;;;;;2.93;2.73;;;;;;;;;;5075830;28;20414;-71
2023/08/22 05:35:20;;;;;;;3.43;2.33;;;;;;;;;;5075627;28;20177;-72
2023/08/22 05:37:45;;;;;;;3.43;2.17;;;22.00;99.90;;;;;;5075939;28;20407;-72
2023/08/22 05:40:11;;;;;;;2.50;1.90;;;24.40;99.90;;;;;;5075814;28;20787;-72
2023/08/22 05:42:37;;;;;;;2.60;2.20;;;;;;;;;;5075611;28;20276;-70
2023/08/22 05:45:03;;;;;;;3.13;2.73;;;24.60;99.90;;;;;;5075533;28;20177;-71
2023/08/22 05:47:29;;;;;;;2.50;2.13;;;;;;;;;;5075753;28;20407;-72
2023/08/22 05:49:55;;;;;;;2.90;2.43;;;24.90;99.60;;;;;;5075369;28;20395;-71
2023/08/22 05:52:22;;;;;;;2.10;1.63;;;25.30;99.00;;;;;;5075492;28;20826;-71
2023/08/22 05:54:48;;;;;;;1.93;1.73;;;26.10;98.00;;;;;;5075381;28;20261;-70
2023/08/22 05:57:14;;;;;;;1.90;1.70;;;27.30;96.00;;;;;;5075443;28;20491;-72
2023/08/22 05:59:39;;;;;;;4.70;2.10;;;28.40;94.20;;;;;;5075617;28;20169;-71
2023/08/22 06:02:05;;;;;;;2.17;1.77;;;29.20;92.40;;;;;;5075301;28;20703;-72
2023/08/22 06:04:31;;;;;;;1.70;1.60;;;29.60;91.00;;;;;;5075229;28;20173;-71
2023/08/22 06:06:57;;;;;;;2.13;1.93;;;29.60;89.90;;;;;;5075351;28;20412;-71
2023/08/22 06:09:22;;;;;;;6.47;2.63;;;29.20;90.00;;;;;;5075326;28;20170;-72
2023/08/22 06:11:48;;;;;;;2.20;2.00;;;28.90;90.70;;;;;;5075118;28;20205;-71
2023/08/22 06:14:13;;;;;;;6.00;3.43;;;28.80;90.60;;;;;;5074965;28;20174;-71
2023/08/22 06:16:39;;;;;;;2.93;2.67;;;29.20;90.60;;;;;;5075159;28;20174;-72
2023/08/22 06:19:05;;;;;;;4.40;3.07;;;;;;;;;;5075114;28;20173;-71
2023/08/22 06:21:31;;;;;;;2.50;2.20;;;;;;;;;;5074675;28;20255;-73
2023/08/22 06:23:57;;;;;;;2.03;1.93;;;29.80;86.70;;;;;;5074721;28;20770;-72
2023/08/22 06:26:23;;;;;;;2.50;2.30;;;29.40;88.20;;;;;;5074779;28;20407;-72
2023/08/22 06:28:50;;;;;;;3.10;2.80;;;29.00;89.90;;;;;;5074874;28;20177;-71
2023/08/22 06:31:15;;;;;;;3.33;2.90;;;28.50;90.80;;;;;;5074721;28;20276;-71
2023/08/22 06:33:41;;;;;;;3.10;1.83;;;28.20;91.70;;;;;;5074703;28;20818;-72
2023/08/22 06:36:07;;;;;;;3.43;3.07;;;28.00;92.20;;;;;;5074655;28;20256;-72
2023/08/22 06:38:33;;;;;;;1.83;1.73;;;28.00;92.40;;;;;;5074539;28;20256;-72
2023/08/22 06:41:04;;;;;;;6.20;2.90;;;28.00;92.40;;;;;;5074235;28;20559;-72
2023/08/22 06:43:30;;;;;;;2.53;2.33;;;28.10;92.40;;;;;;5074761;28;20256;-71
2023/08/22 06:45:58;;;;;;;2.23;2.10;;;28.10;92.60;;;;;;5074411;28;20436;-71
2023/08/22 06:48:25;;;;;;;2.43;2.23;;;27.90;92.90;;;;;;5074600;28;20234;-72
2023/08/22 06:50:51;;;;;;;2.17;2.00;;;27.80;93.60;;;;;;5074274;28;20942;-72
2023/08/22 06:53:17;;;;;;;1.40;1.40;;;27.60;93.80;;;;;;5074262;28;20407;-72
2023/08/22 06:55:46;;;;;;;1.77;1.67;;;27.40;94.30;;;;;;5074152;28;20169;-72
2023/08/22 06:58:11;;;;;;;2.60;1.93;;;27.30;94.60;;;;;;5074261;28;20879;-71
2023/08/22 07:00:37;;;;;;;2.60;1.80;;;;;;;;;;5074164;28;20398;-72
2023/08/22 07:03:04;;;;;;;2.40;2.00;;;;;;;;;;5074165;28;20177;-72
2023/08/22 07:05:29;;;;;;;2.93;2.67;;;27.10;95.10;;;;;;5073995;28;20483;-72
2023/08/22 07:07:55;;;;;;;6.20;2.77;;;27.10;95.10;;;;;;5074194;28;20562;-71
2023/08/22 07:10:21;;;;;;;4.17;1.73;;;27.20;99.90;;;;;;5073933;28;20173;-72
2023/08/22 07:12:46;;;;;;;1.93;1.83;;;27.20;95.80;;;;;;5073979;28;20170;-71
2023/08/22 07:15:12;;;;;;;2.37;2.20;;;27.40;95.40;;;;;;5073833;28;20187;-71
2023/08/22 07:17:38;;;;;;;2.60;2.40;;;;;;;;;;5074076;28;20181;-72
2023/08/22 07:20:04;;;;;;;3.83;2.33;;;28.00;94.40;;;;;;5073820;28;20170;-72
2023/08/22 07:22:30;;;;;;;2.73;2.53;;;28.40;93.80;;;;;;5073509;28;20502;-72
2023/08/22 07:24:56;;;;;;;3.53;3.23;;;28.90;93.40;;;;;;5073539;28;20403;-72
2023/08/22 07:27:22;;;;;;;2.30;2.10;;;29.40;92.90;;;;;;5073756;28;20174;-72
2023/08/22 07:29:48;;;;;;;2.30;2.10;;;30.00;92.10;;;;;;5073885;28;20169;-72
2023/08/22 07:32:13;;;;;;;2.10;2.00;;;30.50;91.40;;;;;;5073228;28;20439;-73
2023/08/22 07:34:39;;;;;;;1.30;1.20;;;31.20;90.00;;;;;;5073137;28;20689;-71
2023/08/22 07:37:04;;;;;;;1.93;1.83;;;32.00;87.80;;;;;;5073553;28;20205;-72
2023/08/22 07:39:30;;;;;;;2.57;1.70;;;33.10;82.50;;;;;;5072284;28;20207;-73
2023/08/22 07:41:56;;;;;;;1.63;1.50;;;34.30;79.60;;;;;;5073352;28;20201;-73
2023/08/22 07:44:23;;;;;;;2.23;1.70;;;35.50;74.50;;;;;;5073344;28;20169;-73
2023/08/22 07:46:50;;;;;;;1.93;1.67;;;37.10;68.70;;;;;;5073666;28;20256;-73
2023/08/22 07:49:16;;;;;;;1.60;1.50;;;38.80;61.90;;;;;;5073307;28;20434;-73
2023/08/22 07:51:41;;;;;;;2.53;2.13;;;40.20;55.70;;;;;;5073320;28;20423;-73
2023/08/22 07:54:08;;;;;;;1.80;1.70;;;41.40;52.60;;;;;;5073346;28;20205;-72
2023/08/22 07:56:36;;;;;;;1.80;1.70;;;42.40;49.70;;;;;;5073450;28;20400;-73
2023/08/22 07:59:02;;;;;;;1.80;1.70;;;;;;;;;;5073495;28;20183;-74
2023/08/22 08:01:28;;;;;;;2.70;1.87;;;44.00;45.60;;;;;;5073152;28;20450;-73
2023/08/22 08:03:55;;;;;;;2.33;1.70;;;44.70;45.10;;;;;;5073099;28;20169;-73
2023/08/22 08:06:20;;;;;;;1.50;1.40;;;45.50;42.90;;;;;;5073402;28;20516;-73
2023/08/22 08:08:46;;;;;;;6.80;2.27;;;;;;;;;;5073678;28;20403;-73
2023/08/22 08:11:12;;;;;;;2.53;2.33;;;46.80;39.90;;;;;;5073159;28;20188;-73
2023/08/22 08:13:38;;;;;;;1.50;1.40;;;47.00;40.10;;;;;;5073566;28;20259;-73
2023/08/22 08:16:04;;;;;;;1.98;1.88;;;47.30;39.40;;;;;;5073247;28;20164;-73
2023/08/22 08:18:29;;;;;;;1.67;1.40;;;47.60;38.50;;;;;;5073260;28;20191;-73
2023/08/22 08:20:55;;;;;;;2.00;1.80;;;48.00;37.40;;;;;;5073151;28;20271;-73
2023/08/22 08:23:21;;;;;;;2.70;2.10;;;48.10;36.70;;;;;;5073570;28;20704;-73
2023/08/22 08:25:47;;;;;;;1.55;1.45;;;;;;;;;;5073064;28;20165;-73
2023/08/22 08:28:14;;;;;;;2.05;1.80;;;;;;;;;;5073198;28;20252;-73
2023/08/22 08:30:40;;;;;;;1.60;1.50;;;48.50;35.50;;;;;;5072993;28;20188;-74
2023/08/22 08:33:06;;;;;;;4.68;1.77;;;48.50;33.10;;;;;;5072985;28;20267;-73
2023/08/22 08:35:32;;;;;;;1.48;1.38;;;48.50;33.30;;;;;;5072915;28;20177;-73
2023/08/22 08:37:59;;;;;;;2.53;1.38;;;48.50;32.80;;;;;;5073039;28;20582;-73
2023/08/22 08:40:26;;;;;;;2.13;1.52;;;48.00;47.30;;;;;;5072976;28;20193;-74
2023/08/22 08:42:52;;;;;;;1.67;1.33;;;47.90;31.50;;;;;;5072957;28;20192;-73
2023/08/22 08:45:18;;;;;;;1.73;1.40;;;47.30;33.50;;;;;;5075705;28;20244;-73
2023/08/22 08:47:44;;;;;;;1.40;1.30;;;47.20;32.90;;;;;;5076673;28;20259;-73
2023/08/22 08:50:10;;;;;;;1.48;1.38;;;47.30;41.70;;;;;;5076500;28;20646;-74
2023/08/22 08:52:36;;;;;;;1.70;1.58;;;47.20;32.70;;;;;;5076673;28;20226;-73
2023/08/22 08:55:04;;;;;;;1.52;1.42;;;47.10;32.00;;;;;;5076531;28;20195;-73
2023/08/22 08:57:32;;;;;;;1.40;1.30;;;46.80;33.70;;;;;;5076708;28;20287;-73
2023/08/22 09:00:02;;;;;;;2.42;2.20;;;46.60;33.70;;;;;;5076662;28;20184;-73
2023/08/22 09:02:28;;;;;;;1.80;1.25;;;46.30;32.90;;;;;;5076380;28;20193;-74
2023/08/22 09:04:53;;;;;;;2.35;1.77;;;46.10;33.10;;;;;;5076278;28;20169;-73
2023/08/22 09:07:20;;;;;;;1.40;1.30;;;;;;;;;;5076597;28;20195;-74
2023/08/22 09:09:46;;;;;;;3.33;1.48;;;46.30;32.50;;;;;;5076593;28;20611;-73
2023/08/22 09:12:13;;;;;;;1.75;1.65;;;46.50;33.30;;;;;;5076230;28;20236;-73
2023/08/22 09:14:47;;;;;;;1.90;1.80;;;46.30;32.50;;;;;;5076171;28;20189;-73
2023/08/22 09:17:16;;;;;;;1.87;1.33;;;45.90;31.90;;;;;;5076209;28;20172;-74
2023/08/22 09:19:42;;;;;;;1.30;1.20;;;45.80;33.30;;;;;;5076145;28;20169;-73
2023/08/22 09:22:12;;;;;;;1.60;1.50;;;45.90;33.60;;;;;;5076136;28;20272;-73
2023/08/22 09:24:38;;;;;;;2.30;1.80;;;45.40;34.20;;;;;;5075863;28;20403;-73
2023/08/22 09:27:03;;;;;;;1.83;1.73;;;44.90;34.30;;;;;;5076204;28;20510;-73
2023/08/22 09:29:34;;;;;;;2.00;1.90;;;44.30;35.00;;;;;;5076189;28;20197;-73
2023/08/22 09:32:06;;;;;;;1.20;1.20;;;44.60;35.90;;;;;;5075835;28;20451;-73
2023/08/22 09:34:33;;;;;;;1.60;1.50;;;44.60;35.30;;;;;;5075729;28;20407;-73
2023/08/22 09:36:59;;;;;;;1.83;1.60;;;;;;;;;;5075978;28;20888;-73
2023/08/22 09:39:25;;;;;;;3.20;2.03;;;44.60;33.60;;;;;;5076070;28;20476;-73
2023/08/22 09:41:54;;;;;;;2.40;1.50;;;44.50;34.70;;;;;;5075662;28;20469;-73
2023/08/22 09:44:27;;;;;;;1.80;1.47;;;44.70;34.10;;;;;;5075759;28;20411;-73
2023/08/22 09:46:55;;;;;;;3.03;1.70;;;44.60;35.40;;;;;;5075744;28;20500;-73
2023/08/22 09:49:22;;;;;;;2.00;1.80;;;44.80;34.70;;;;;;5075526;28;20514;-74
2023/08/22 09:51:49;;;;;;;1.40;1.30;;;44.50;35.90;;;;;;5075437;28;20970;-73
2023/08/22 09:54:16;;;;;;;1.90;1.70;;;44.00;35.10;;;;;;5075530;28;20404;-73
2023/08/22 09:56:42;;;;;;;2.60;2.40;;;43.70;37.00;;;;;;5074672;28;20407;-73
2023/08/22 09:59:10;;;;;;;1.87;1.70;;;43.70;36.60;;;;;;5075440;28;20486;-73
2023/08/22 10:01:41;;;;;;;1.73;1.63;;;43.70;38.00;;;;;;5075355;28;20427;-72
2023/08/22 10:04:08;;;;;;;1.93;1.73;;;43.30;36.20;;;;;;5075223;28;20427;-73
2023/08/22 10:06:35;;;;;;;2.80;2.30;;;42.30;35.30;;;;;;5075476;28;20762;-73
2023/08/22 10:09:10;;;;;;;1.60;1.50;;;42.30;35.80;;;;;;5075415;28;20403;-73
2023/08/22 10:11:49;;;;;;;1.50;1.40;;;42.50;37.20;;;;;;5075068;28;20447;-73
2023/08/22 10:14:28;;;;;;;1.90;1.60;;;42.50;37.80;;;;;;5075208;28;20399;-72
2023/08/22 10:16:55;;;;;;;1.87;1.70;;;41.60;37.70;;;;;;5075240;28;20496;-73
2023/08/22 10:19:23;;;;;;;1.67;1.50;;;41.30;39.30;;;;;;5075028;28;20407;-73
2023/08/22 10:21:49;;;;;;;1.83;1.73;;;40.80;37.50;;;;;;5074906;28;20423;-73
2023/08/22 10:24:35;;;;;;;1.40;1.30;;;40.20;37.20;;;;;;5074891;28;20415;-72
2023/08/22 10:27:07;;;;;;;1.60;1.37;;;39.60;38.40;;;;;;5075046;28;20193;-72
2023/08/22 10:30:13;;;;;;;2.13;1.80;;;39.20;39.40;;;;;;5075129;28;20453;-72
2023/08/22 10:32:39;;;;;;;1.37;1.27;;;38.80;41.80;;;;;;5074612;28;20925;-73
2023/08/22 10:35:07;;;;;;;2.03;1.93;;;38.30;41.60;;;;;;5074683;28;20538;-73
2023/08/22 10:37:32;;;;;;;1.70;1.60;;;38.30;42.10;;;;;;5074851;28;20395;-73
2023/08/22 10:40:03;;;;;;;2.03;1.83;;;38.20;43.00;;;;;;5074547;28;20404;-72
2023/08/22 10:42:28;;;;;;;2.70;2.50;;;37.90;43.60;;;;;;5074622;28;20308;-72
2023/08/22 10:44:56;;;;;;;2.30;2.10;;;37.80;46.00;;;;;;5074257;28;20483;-73
2023/08/22 10:47:22;;;;;;;2.70;1.93;;;;;;;;;;5074426;28;20684;-72
2023/08/22 10:49:49;;;;;;;2.50;2.30;;;37.50;43.90;;;;;;5074196;28;20416;-72
2023/08/22 10:52:16;;;;;;;2.03;1.67;;;37.00;44.00;;;;;;5074184;28;20485;-73
2023/08/22 10:55:03;;;;;;;9.07;2.03;;;36.50;45.60;;;;;;5074208;28;20900;-72
2023/08/22 10:57:36;;;;;;;2.30;2.10;;;35.90;45.80;;;;;;5074318;28;20400;-72
2023/08/22 11:00:22;;;;;;;3.33;3.03;;;35.60;46.80;;;;;;5074304;28;20473;-72
2023/08/22 11:02:51;;;;;;;2.83;2.63;;;35.00;49.60;;;;;;5074365;28;20385;-73
2023/08/22 11:05:17;;;;;;;4.90;2.30;;;34.80;49.90;;;;;;5074018;28;20395;-73
2023/08/22 11:07:48;;;;;;;2.20;1.40;;;34.40;50.00;;;;;;5072957;28;20407;-71
2023/08/22 11:10:15;;;;;;;2.73;2.53;;;33.90;66.00;;;;;;5073862;28;20404;-72
2023/08/22 11:12:43;;;;;;;2.53;2.27;;;33.90;50.70;;;;;;5074171;28;20451;-73
2023/08/22 11:15:10;;;;;;;1.93;1.83;;;33.70;52.20;;;;;;5073646;28;20404;-72
2023/08/22 11:17:40;;;;;;;1.40;1.30;;;33.40;53.40;;;;;;5074010;28;20454;-73
2023/08/22 11:20:17;;;;;;;1.73;1.60;;;33.10;53.00;;;;;;5073810;28;20458;-72
2023/08/22 11:22:44;;;;;;;2.50;2.30;;;33.20;54.40;;;;;;5073887;28;20441;-72
2023/08/22 11:25:13;;;;;;;2.80;2.60;;;33.60;53.10;;;;;;5073721;28;20457;-72
2023/08/22 11:27:40;;;;;;;1.77;1.53;;;33.80;53.90;;;;;;5073617;28;20400;-72
2023/08/22 11:30:08;;;;;;;1.73;1.63;;;34.10;52.60;;;;;;5073844;28;20408;-73
2023/08/22 11:32:38;;;;;;;2.20;2.00;;;34.30;53.30;;;;;;5073616;28;20548;-72
2023/08/22 11:35:05;;;;;;;1.93;1.60;;;34.40;51.20;;;;;;5073562;28;20404;-72
2023/08/22 11:37:39;;;;;;;2.47;2.27;;;34.40;51.70;;;;;;5073475;28;20428;-73
2023/08/22 11:40:09;;;;;;;2.37;2.17;;;34.50;50.40;;;;;;5073714;28;20392;-73
2023/08/22 11:42:36;;;;;;;3.07;2.20;;;34.50;51.60;;;;;;5074124;28;20431;-72
2023/08/22 11:45:04;;;;;;;2.53;2.33;;;34.40;53.70;;;;;;5073355;28;20403;-72
2023/08/22 11:47:48;;;;;;;2.40;2.20;;;34.40;53.20;;;;;;5073449;28;20457;-72
2023/08/22 11:50:17;;;;;;;2.07;1.93;;;34.10;69.50;;;;;;5073319;28;20422;-72
2023/08/22 11:52:47;;;;;;;2.00;1.70;;;34.20;53.10;;;;;;5073330;28;20455;-72
2023/08/22 11:55:16;;;;;;;2.07;1.97;;;33.90;53.50;;;;;;5073216;28;20487;-72
2023/08/22 11:57:43;;;;;;;8.27;2.40;;;33.80;51.80;;;;;;5073560;28;20404;-72
2023/08/22 12:00:14;;;;;;;1.73;1.60;;;33.80;52.30;;;;;;5073541;28;20457;-72
2023/08/22 12:02:59;;;;;;;2.23;2.00;;;33.90;52.80;;;;;;5073351;28;20400;-72
2023/08/22 12:05:28;;;;;;;2.93;2.67;;;34.00;52.70;;;;;;5073146;28;20431;-72
2023/08/22 12:07:53;;;;;;;5.30;3.00;;;34.00;51.90;;;;;;5073508;28;20403;-72
2023/08/22 12:10:19;;;;;;;2.47;2.20;;;33.60;76.60;;;;;;5073151;28;20758;-72
2023/08/22 12:12:45;;;;;;;3.03;2.40;;;33.40;52.30;;;;;;5073307;28;20197;-72
2023/08/22 12:15:10;;;;;;;2.00;1.90;;;33.30;52.90;;;;;;5073152;28;20251;-72
2023/08/22 12:17:36;;;;;;;3.47;3.00;;;33.20;53.80;;;;;;5073364;28;20530;-73
2023/08/22 12:20:02;;;;;;;7.13;2.10;;;;;;;;;;5075967;28;20170;-72
2023/08/22 12:22:27;;;;;;;2.03;1.90;;;33.20;53.80;;;;;;5077419;28;20258;-72
2023/08/22 12:24:53;;;;;;;5.00;2.67;;;33.40;55.60;;;;;;5077086;28;20404;-72
2023/08/22 12:27:19;;;;;;;2.00;1.80;;;33.40;52.70;;;;;;5077292;28;20227;-72
2023/08/22 12:29:45;;;;;;;1.90;1.80;;;33.40;54.00;;;;;;5077244;28;20195;-72
2023/08/22 12:32:11;;;;;;;3.27;2.30;;;;;;;;;;5076947;28;20226;-71
2023/08/22 12:34:36;;;;;;;1.87;1.77;;;33.50;52.50;;;;;;5076979;28;20399;-73
2023/08/22 12:37:02;;;;;;;2.00;1.80;;;33.60;54.50;;;;;;5077098;28;20407;-72
2023/08/22 12:39:27;;;;;;;1.50;1.40;;;33.60;51.90;;;;;;5077189;28;20723;-72
2023/08/22 12:41:53;;;;;;;2.43;2.23;;;33.20;52.60;;;;;;5076904;28;20217;-72
2023/08/22 12:44:19;;;;;;;1.80;1.70;;;;;;;;;;5076790;28;20248;-72
2023/08/22 12:46:45;;;;;;;2.00;1.80;;;32.50;54.10;;;;;;5076955;28;20257;-72
2023/08/22 12:49:10;;;;;;;2.43;2.23;;;32.60;56.50;;;;;;5076692;28;20902;-72
2023/08/22 12:51:36;;;;;;;2.97;1.47;;;32.60;52.90;;;;;;5076668;28;20559;-73
2023/08/22 12:54:02;;;;;;;1.60;1.50;;;32.80;53.70;;;;;;5076757;28;20493;-72
2023/08/22 12:56:28;;;;;;;2.90;2.60;;;32.70;52.10;;;;;;5076769;28;20174;-73